sensor_id;sensor_type;location;lat;lon;timestamp;pressure;altitude;pressure_sealevel;temperature;humidity
14902;BME280;7542;49.078;9.194;2023-03-15T00:01:06;98225.88;;;27.53;31.01
14902;BME280;7542;49.078;9.194;2023-03-15T00:02:08;98234.25;;;27.52;31.12
14902;BME280;7542;49.078;9.194;2023-03-15T00:03:11;98236.44;;;27.50;31.08
14902;BME280;7542;49.078;9.194;2023-03-15T00:04:13;98236.44;;;27.50;31.09
14902;BME280;7542;49.078;9.194;2023-03-15T00:05:15;98239.94;;;27.50;30.97
14902;BME280;7542;49.078;9.194;2023-03-15T00:06:16;98242.31;;;27.52;31.10
14902;BME280;7542;49.078;9.194;2023-03-15T00:07:18;98240.72;;;27.51;31.11
14902;BME280;7542;49.078;9.194;2023-03-15T00:08:26;98253.38;;;27.50;30.95
14902;BME280;7542;49.078;9.194;2023-03-15T00:09:28;98245.59;;;27.49;31.12
14902;BME280;7542;49.078;9.194;2023-03-15T00:10:29;98253.69;;;27.49;31.05
14902;BME280;7542;49.078;9.194;2023-03-15T00:11:31;98253.69;;;27.49;30.90
14902;BME280;7542;49.078;9.194;2023-03-15T00:12:33;98254.78;;;27.48;30.94
14902;BME280;7542;49.078;9.194;2023-03-15T00:13:35;98253.16;;;27.47;31.05
14902;BME280;7542;49.078;9.194;2023-03-15T00:14:37;98260.16;;;27.48;30.95
14902;BME280;7542;49.078;9.194;2023-03-15T00:15:52;98262.19;;;27.56;30.85
14902;BME280;7542;49.078;9.194;2023-03-15T00:16:54;98264.44;;;27.49;30.93
14902;BME280;7542;49.078;9.194;2023-03-15T00:17:56;98263.94;;;27.47;30.91
14902;BME280;7542;49.078;9.194;2023-03-15T00:18:59;98262.31;;;27.45;30.87
14902;BME280;7542;49.078;9.194;2023-03-15T00:20:01;98271.47;;;27.44;31.01
14902;BME280;7542;49.078;9.194;2023-03-15T00:21:04;98268.00;;;27.44;31.10
14902;BME280;7542;49.078;9.194;2023-03-15T00:22:06;98271.78;;;27.43;31.12
14902;BME280;7542;49.078;9.194;2023-03-15T00:23:09;98276.88;;;27.44;30.81
14902;BME280;7542;49.078;9.194;2023-03-15T00:24:11;98277.97;;;27.43;31.06
14902;BME280;7542;49.078;9.194;2023-03-15T00:25:13;98273.66;;;27.42;31.07
14902;BME280;7542;49.078;9.194;2023-03-15T00:26:15;98272.06;;;27.41;31.00
14902;BME280;7542;49.078;9.194;2023-03-15T00:27:17;98272.88;;;27.42;30.98
14902;BME280;7542;49.078;9.194;2023-03-15T00:28:20;98275.06;;;27.40;30.96
14902;BME280;7542;49.078;9.194;2023-03-15T00:29:22;98282.84;;;27.41;31.00
14902;BME280;7542;49.078;9.194;2023-03-15T00:30:24;98280.94;;;27.42;30.80
14902;BME280;7542;49.078;9.194;2023-03-15T00:31:26;98274.25;;;27.39;30.89
14902;BME280;7542;49.078;9.194;2023-03-15T00:32:27;98277.75;;;27.40;30.84
14902;BME280;7542;49.078;9.194;2023-03-15T00:33:30;98288.81;;;27.38;30.92
14902;BME280;7542;49.078;9.194;2023-03-15T00:34:35;98282.84;;;27.41;31.12
14902;BME280;7542;49.078;9.194;2023-03-15T00:35:43;98290.63;;;27.43;30.97
14902;BME280;7542;49.078;9.194;2023-03-15T00:36:45;98282.63;;;27.38;30.73
14902;BME280;7542;49.078;9.194;2023-03-15T00:37:47;98290.41;;;27.39;30.81
14902;BME280;7542;49.078;9.194;2023-03-15T00:38:51;98294.47;;;27.37;30.77
14902;BME280;7542;49.078;9.194;2023-03-15T00:39:54;98291.78;;;27.37;30.84
14902;BME280;7542;49.078;9.194;2023-03-15T00:40:56;98296.38;;;27.36;30.96
14902;BME280;7542;49.078;9.194;2023-03-15T00:41:58;98299.06;;;27.36;30.98
14902;BME280;7542;49.078;9.194;2023-03-15T00:42:59;98299.31;;;27.35;30.97
14902;BME280;7542;49.078;9.194;2023-03-15T00:44:01;98303.91;;;27.34;30.94
14902;BME280;7542;49.078;9.194;2023-03-15T00:45:06;98296.13;;;27.33;30.77
14902;BME280;7542;49.078;9.194;2023-03-15T00:46:08;98302.31;;;27.33;30.92
14902;BME280;7542;49.078;9.194;2023-03-15T00:47:13;98305.00;;;27.33;30.89
14902;BME280;7542;49.078;9.194;2023-03-15T00:48:15;98296.41;;;27.31;30.98
14902;BME280;7542;49.078;9.194;2023-03-15T00:49:17;98302.59;;;27.32;30.76
14902;BME280;7542;49.078;9.194;2023-03-15T00:50:20;98304.47;;;27.31;30.72
14902;BME280;7542;49.078;9.194;2023-03-15T00:51:23;98315.25;;;27.31;30.72
14902;BME280;7542;49.078;9.194;2023-03-15T00:52:25;98312.56;;;27.31;30.96
14902;BME280;7542;49.078;9.194;2023-03-15T00:53:27;98312.84;;;27.30;30.79
14902;BME280;7542;49.078;9.194;2023-03-15T00:54:29;98319.31;;;27.29;30.96
14902;BME280;7542;49.078;9.194;2023-03-15T00:55:34;98316.63;;;27.29;30.85
14902;BME280;7542;49.078;9.194;2023-03-15T00:56:36;98322.03;;;27.29;30.95
14902;BME280;7542;49.078;9.194;2023-03-15T00:57:42;98332.22;;;27.32;30.94
14902;BME280;7542;49.078;9.194;2023-03-15T00:58:45;98331.69;;;27.30;30.81
14902;BME280;7542;49.078;9.194;2023-03-15T00:59:47;98322.31;;;27.27;30.90
14902;BME280;7542;49.078;9.194;2023-03-15T01:00:49;98322.31;;;27.27;30.80
14902;BME280;7542;49.078;9.194;2023-03-15T01:01:52;98321.78;;;27.25;30.75
14902;BME280;7542;49.078;9.194;2023-03-15T01:02:54;98321.00;;;27.25;30.94
14902;BME280;7542;49.078;9.194;2023-03-15T01:03:56;98320.16;;;27.24;31.02
14902;BME280;7542;49.078;9.194;2023-03-15T01:04:58;98320.16;;;27.24;30.69
14902;BME280;7542;49.078;9.194;2023-03-15T01:06:09;98320.72;;;27.26;31.13
14902;BME280;7542;49.078;9.194;2023-03-15T01:07:12;98316.41;;;27.25;30.96
14902;BME280;7542;49.078;9.194;2023-03-15T01:08:13;98325.53;;;27.24;30.76
14902;BME280;7542;49.078;9.194;2023-03-15T01:09:15;98316.41;;;27.25;30.75
14902;BME280;7542;49.078;9.194;2023-03-15T01:10:18;98318.56;;;27.23;30.96
14902;BME280;7542;49.078;9.194;2023-03-15T01:11:24;98317.75;;;27.23;31.04
14902;BME280;7542;49.078;9.194;2023-03-15T01:12:29;98322.34;;;27.22;30.79
14902;BME280;7542;49.078;9.194;2023-03-15T01:13:34;98323.16;;;27.23;30.82
14902;BME280;7542;49.078;9.194;2023-03-15T01:14:36;98328.00;;;27.21;30.95
14902;BME280;7542;49.078;9.194;2023-03-15T01:15:39;98318.84;;;27.22;30.64
14902;BME280;7542;49.078;9.194;2023-03-15T01:16:45;98327.72;;;27.22;30.72
14902;BME280;7542;49.078;9.194;2023-03-15T01:17:47;98331.78;;;27.20;30.77
14902;BME280;7542;49.078;9.194;2023-03-15T01:18:50;98332.09;;;27.18;30.93
14902;BME280;7542;49.078;9.194;2023-03-15T01:19:54;98325.91;;;27.18;31.06
14902;BME280;7542;49.078;9.194;2023-03-15T01:20:57;98335.88;;;27.17;30.87
14902;BME280;7542;49.078;9.194;2023-03-15T01:21:59;98330.19;;;27.19;30.85
14902;BME280;7542;49.078;9.194;2023-03-15T01:23:01;98332.09;;;27.18;31.00
14902;BME280;7542;49.078;9.194;2023-03-15T01:24:03;98332.38;;;27.17;30.83
14902;BME280;7542;49.078;9.194;2023-03-15T01:25:06;98337.75;;;27.17;30.99
14902;BME280;7542;49.078;9.194;2023-03-15T01:26:13;98338.56;;;27.17;31.04
14902;BME280;7542;49.078;9.194;2023-03-15T01:27:15;98341.25;;;27.17;30.93
14902;BME280;7542;49.078;9.194;2023-03-15T01:28:17;98339.34;;;27.18;30.87
14902;BME280;7542;49.078;9.194;2023-03-15T01:29:19;98342.34;;;27.16;30.81
14902;BME280;7542;49.078;9.194;2023-03-15T01:30:21;98344.22;;;27.15;31.09
14902;BME280;7542;49.078;9.194;2023-03-15T01:31:26;98346.13;;;27.15;30.86
14902;BME280;7542;49.078;9.194;2023-03-15T01:32:28;98348.53;;;27.17;30.85
14902;BME280;7542;49.078;9.194;2023-03-15T01:33:30;98344.50;;;27.14;30.88
14902;BME280;7542;49.078;9.194;2023-03-15T01:34:33;98344.50;;;27.14;30.80
14902;BME280;7542;49.078;9.194;2023-03-15T01:35:35;98342.63;;;27.14;30.71
14902;BME280;7542;49.078;9.194;2023-03-15T01:36:37;98349.06;;;27.13;30.92
14902;BME280;7542;49.078;9.194;2023-03-15T01:37:39;98352.84;;;27.12;30.69
14902;BME280;7542;49.078;9.194;2023-03-15T01:38:41;98347.47;;;27.12;30.81
14902;BME280;7542;49.078;9.194;2023-03-15T01:39:43;98357.44;;;27.12;30.88
14902;BME280;7542;49.078;9.194;2023-03-15T01:40:45;98357.13;;;27.13;30.94
14902;BME280;7542;49.078;9.194;2023-03-15T01:41:47;98354.44;;;27.13;30.87
14902;BME280;7542;49.078;9.194;2023-03-15T01:44:13;98356.31;;;27.18;30.79
14902;BME280;7542;49.078;9.194;2023-03-15T01:47:13;98363.59;;;27.18;30.59
14902;BME280;7542;49.078;9.194;2023-03-15T01:48:15;98367.38;;;27.11;30.90
14902;BME280;7542;49.078;9.194;2023-03-15T01:49:31;98367.59;;;27.20;30.93
14902;BME280;7542;49.078;9.194;2023-03-15T01:50:33;98367.38;;;27.11;30.95
14902;BME280;7542;49.078;9.194;2023-03-15T01:51:43;98367.91;;;27.13;30.94
14902;BME280;7542;49.078;9.194;2023-03-15T01:52:47;98371.97;;;27.11;30.88
14902;BME280;7542;49.078;9.194;2023-03-15T01:54:26;98371.84;;;27.26;30.71
14902;BME280;7542;49.078;9.194;2023-03-15T01:55:30;98375.97;;;27.13;30.60
14902;BME280;7542;49.078;9.194;2023-03-15T01:56:35;98370.66;;;27.08;30.88
14902;BME280;7542;49.078;9.194;2023-03-15T01:58:52;98374.44;;;27.07;30.92
14902;BME280;7542;49.078;9.194;2023-03-15T02:01:09;98381.72;;;27.07;30.60
14902;BME280;7542;49.078;9.194;2023-03-15T02:02:11;98383.38;;;27.03;30.83
14902;BME280;7542;49.078;9.194;2023-03-15T02:03:22;98380.63;;;27.08;30.71
14902;BME280;7542;49.078;9.194;2023-03-15T02:04:41;98374.34;;;27.18;30.89
14902;BME280;7542;49.078;9.194;2023-03-15T02:05:53;98376.84;;;27.09;30.92
14902;BME280;7542;49.078;9.194;2023-03-15T02:07:00;98378.22;;;27.06;30.75
14902;BME280;7542;49.078;9.194;2023-03-15T02:08:06;98384.41;;;27.07;30.86
14902;BME280;7542;49.078;9.194;2023-03-15T02:09:10;98389.56;;;27.03;30.60
14902;BME280;7542;49.078;9.194;2023-03-15T02:10:27;98381.66;;;27.12;30.89
14902;BME280;7542;49.078;9.194;2023-03-15T02:11:33;98379.84;;;27.02;30.85
14902;BME280;7542;49.078;9.194;2023-03-15T02:12:42;98383.88;;;27.05;30.97
14902;BME280;7542;49.078;9.194;2023-03-15T02:13:48;98385.22;;;27.02;30.80
14902;BME280;7542;49.078;9.194;2023-03-15T02:14:51;98383.59;;;27.01;30.88
14902;BME280;7542;49.078;9.194;2023-03-15T02:15:55;98380.66;;;26.98;30.62
14902;BME280;7542;49.078;9.194;2023-03-15T02:16:57;98375.28;;;26.98;30.66
14902;BME280;7542;49.078;9.194;2023-03-15T02:17:59;98378.78;;;26.98;30.72
14902;BME280;7542;49.078;9.194;2023-03-15T02:19:01;98380.66;;;26.98;30.89
14902;BME280;7542;49.078;9.194;2023-03-15T02:22:59;98379.53;;;27.09;31.01
14902;BME280;7542;49.078;9.194;2023-03-15T02:24:34;98377.03;;;27.18;30.32
14902;BME280;7542;49.078;9.194;2023-03-15T02:27:04;98376.09;;;26.98;30.66
14902;BME280;7542;49.078;9.194;2023-03-15T02:28:10;98377.47;;;26.96;30.99
14902;BME280;7542;49.078;9.194;2023-03-15T02:29:13;98376.16;;;26.93;30.93
14902;BME280;7542;49.078;9.194;2023-03-15T02:30:15;98380.19;;;26.91;30.86
14902;BME280;7542;49.078;9.194;2023-03-15T02:31:17;98371.59;;;26.88;30.92
14902;BME280;7542;49.078;9.194;2023-03-15T02:32:20;98373.19;;;26.90;30.77
14902;BME280;7542;49.078;9.194;2023-03-15T02:33:29;98383.66;;;26.96;30.60
14902;BME280;7542;49.078;9.194;2023-03-15T02:34:33;98377.50;;;26.91;30.88
14902;BME280;7542;49.078;9.194;2023-03-15T02:35:34;98380.97;;;26.91;30.92
14902;BME280;7542;49.078;9.194;2023-03-15T02:36:36;98384.25;;;26.88;30.83
14902;BME280;7542;49.078;9.194;2023-03-15T02:37:38;98382.63;;;26.87;30.81
14902;BME280;7542;49.078;9.194;2023-03-15T02:38:47;98397.69;;;26.88;30.96
14902;BME280;7542;49.078;9.194;2023-03-15T02:39:50;98395.00;;;26.88;31.02
14902;BME280;7542;49.078;9.194;2023-03-15T02:40:52;98402.00;;;26.89;30.96
14902;BME280;7542;49.078;9.194;2023-03-15T02:41:58;98398.50;;;26.88;31.12
14902;BME280;7542;49.078;9.194;2023-03-15T02:43:09;98406.53;;;26.94;30.87
14902;BME280;7542;49.078;9.194;2023-03-15T02:44:16;98403.06;;;26.88;30.81
14902;BME280;7542;49.078;9.194;2023-03-15T02:45:20;98411.94;;;26.88;30.84
14902;BME280;7542;49.078;9.194;2023-03-15T02:46:23;98418.41;;;26.87;30.66
14902;BME280;7542;49.078;9.194;2023-03-15T02:47:31;98408.97;;;26.90;30.72
14902;BME280;7542;49.078;9.194;2023-03-15T02:48:35;98418.41;;;26.87;30.83
14902;BME280;7542;49.078;9.194;2023-03-15T02:49:42;98418.94;;;26.90;30.99
14902;BME280;7542;49.078;9.194;2023-03-15T02:50:45;98422.19;;;26.86;30.89
14902;BME280;7542;49.078;9.194;2023-03-15T02:51:47;98426.78;;;26.86;31.03
14902;BME280;7542;49.078;9.194;2023-03-15T02:52:49;98425.16;;;26.85;30.66
14902;BME280;7542;49.078;9.194;2023-03-15T02:53:53;98431.63;;;26.84;30.95
14902;BME280;7542;49.078;9.194;2023-03-15T02:54:55;98435.94;;;26.85;30.93
14902;BME280;7542;49.078;9.194;2023-03-15T02:55:57;98445.09;;;26.84;31.14
14902;BME280;7542;49.078;9.194;2023-03-15T02:57:01;98441.88;;;26.82;30.99
14902;BME280;7542;49.078;9.194;2023-03-15T02:58:04;98449.66;;;26.83;30.63
14902;BME280;7542;49.078;9.194;2023-03-15T02:59:05;98454.25;;;26.83;30.86
14902;BME280;7542;49.078;9.194;2023-03-15T03:00:08;98454.53;;;26.81;30.48
14902;BME280;7542;49.078;9.194;2023-03-15T03:01:17;98447.78;;;26.84;30.59
14902;BME280;7542;49.078;9.194;2023-03-15T03:02:20;98464.19;;;26.82;30.68
14902;BME280;7542;49.078;9.194;2023-03-15T03:03:22;98455.56;;;26.80;30.99
14902;BME280;7542;49.078;9.194;2023-03-15T03:04:24;98462.59;;;26.81;30.86
14902;BME280;7542;49.078;9.194;2023-03-15T03:05:26;98460.16;;;26.80;30.98
14902;BME280;7542;49.078;9.194;2023-03-15T03:06:28;98459.34;;;26.79;30.67
14902;BME280;7542;49.078;9.194;2023-03-15T03:07:30;98462.84;;;26.80;31.02
14902;BME280;7542;49.078;9.194;2023-03-15T03:08:32;98474.41;;;26.80;30.69
14902;BME280;7542;49.078;9.194;2023-03-15T03:09:34;98473.59;;;26.80;30.62
14902;BME280;7542;49.078;9.194;2023-03-15T03:10:36;98470.41;;;26.78;30.84
14902;BME280;7542;49.078;9.194;2023-03-15T03:11:38;98468.50;;;26.78;30.89
14902;BME280;7542;49.078;9.194;2023-03-15T03:12:40;98466.91;;;26.77;30.78
14902;BME280;7542;49.078;9.194;2023-03-15T03:13:42;98465.28;;;26.76;30.87
14902;BME280;7542;49.078;9.194;2023-03-15T03:14:44;98461.53;;;26.77;30.98
14902;BME280;7542;49.078;9.194;2023-03-15T03:15:49;98473.09;;;26.78;30.80
14902;BME280;7542;49.078;9.194;2023-03-15T03:16:59;98474.41;;;26.80;30.58
14902;BME280;7542;49.078;9.194;2023-03-15T03:18:02;98471.19;;;26.78;30.71
14902;BME280;7542;49.078;9.194;2023-03-15T03:19:04;98474.97;;;26.77;30.93
14902;BME280;7542;49.078;9.194;2023-03-15T03:20:11;98467.13;;;26.81;30.90
14902;BME280;7542;49.078;9.194;2023-03-15T03:21:14;98477.66;;;26.77;30.83
14902;BME280;7542;49.078;9.194;2023-03-15T03:22:16;98481.16;;;26.78;30.64
14902;BME280;7542;49.078;9.194;2023-03-15T03:23:18;98480.34;;;26.77;30.89
14902;BME280;7542;49.078;9.194;2023-03-15T03:24:20;98488.41;;;26.77;30.74
14902;BME280;7542;49.078;9.194;2023-03-15T03:25:22;98486.81;;;26.76;30.72
14902;BME280;7542;49.078;9.194;2023-03-15T03:26:27;98486.53;;;26.78;30.91
14902;BME280;7542;49.078;9.194;2023-03-15T03:27:33;98487.63;;;26.77;30.74
14902;BME280;7542;49.078;9.194;2023-03-15T03:28:38;98484.13;;;26.76;30.87
14902;BME280;7542;49.078;9.194;2023-03-15T03:29:41;98490.59;;;26.75;30.81
14902;BME280;7542;49.078;9.194;2023-03-15T03:30:42;98492.19;;;26.76;30.90
14902;BME280;7542;49.078;9.194;2023-03-15T03:31:44;98497.06;;;26.74;30.65
14902;BME280;7542;49.078;9.194;2023-03-15T03:32:46;98497.84;;;26.75;31.01
14902;BME280;7542;49.078;9.194;2023-03-15T03:33:49;98496.25;;;26.74;31.00
14902;BME280;7542;49.078;9.194;2023-03-15T03:34:51;98500.81;;;26.73;30.99
14902;BME280;7542;49.078;9.194;2023-03-15T03:35:52;98501.63;;;26.74;31.03
14902;BME280;7542;49.078;9.194;2023-03-15T03:36:55;98502.44;;;26.74;31.01
14902;BME280;7542;49.078;9.194;2023-03-15T03:37:56;98510.50;;;26.74;30.75
14902;BME280;7542;49.078;9.194;2023-03-15T03:38:58;98511.59;;;26.73;30.63
14902;BME280;7542;49.078;9.194;2023-03-15T03:40:00;98507.81;;;26.74;30.86
14902;BME280;7542;49.078;9.194;2023-03-15T03:41:03;98507.00;;;26.74;30.88
14902;BME280;7542;49.078;9.194;2023-03-15T03:42:05;98513.47;;;26.73;30.75
14902;BME280;7542;49.078;9.194;2023-03-15T03:43:08;98516.16;;;26.73;30.87
14902;BME280;7542;49.078;9.194;2023-03-15T03:44:10;98516.69;;;26.75;30.56
14902;BME280;7542;49.078;9.194;2023-03-15T03:45:12;98516.16;;;26.73;30.90
14902;BME280;7542;49.078;9.194;2023-03-15T03:46:13;98519.66;;;26.73;30.67
14902;BME280;7542;49.078;9.194;2023-03-15T03:47:15;98518.06;;;26.72;30.64
14902;BME280;7542;49.078;9.194;2023-03-15T03:48:17;98522.34;;;26.73;30.85
14902;BME280;7542;49.078;9.194;2023-03-15T03:49:19;98516.44;;;26.71;30.91
14902;BME280;7542;49.078;9.194;2023-03-15T03:50:21;98516.69;;;26.70;30.79
14902;BME280;7542;49.078;9.194;2023-03-15T03:51:23;98521.53;;;26.73;30.99
14902;BME280;7542;49.078;9.194;2023-03-15T03:52:25;98525.31;;;26.72;30.68
14902;BME280;7542;49.078;9.194;2023-03-15T03:53:27;98533.09;;;26.73;31.02
14902;BME280;7542;49.078;9.194;2023-03-15T03:54:29;98527.44;;;26.70;30.80
14902;BME280;7542;49.078;9.194;2023-03-15T03:55:32;98532.59;;;26.71;30.78
14902;BME280;7542;49.078;9.194;2023-03-15T03:56:34;98533.38;;;26.72;30.75
14902;BME280;7542;49.078;9.194;2023-03-15T03:57:36;98532.03;;;26.69;30.94
14902;BME280;7542;49.078;9.194;2023-03-15T03:58:38;98533.66;;;26.70;30.87
14902;BME280;7542;49.078;9.194;2023-03-15T03:59:39;98541.75;;;26.70;30.66
14902;BME280;7542;49.078;9.194;2023-03-15T04:00:42;98538.50;;;26.68;31.08
14902;BME280;7542;49.078;9.194;2023-03-15T04:01:44;98546.56;;;26.68;30.64
14902;BME280;7542;49.078;9.194;2023-03-15T04:02:46;98547.38;;;26.69;30.73
14902;BME280;7542;49.078;9.194;2023-03-15T04:03:48;98540.91;;;26.70;30.74
14902;BME280;7542;49.078;9.194;2023-03-15T04:04:50;98551.94;;;26.68;30.99
14902;BME280;7542;49.078;9.194;2023-03-15T04:05:57;98553.81;;;26.73;30.83
14902;BME280;7542;49.078;9.194;2023-03-15T04:06:59;98553.56;;;26.69;30.69
14902;BME280;7542;49.078;9.194;2023-03-15T04:08:01;98546.28;;;26.70;30.99
14902;BME280;7542;49.078;9.194;2023-03-15T04:09:03;98546.84;;;26.67;30.49
14902;BME280;7542;49.078;9.194;2023-03-15T04:10:05;98546.03;;;26.66;30.91
14902;BME280;7542;49.078;9.194;2023-03-15T04:11:07;98551.41;;;26.66;30.83
14902;BME280;7542;49.078;9.194;2023-03-15T04:12:09;98556.78;;;26.66;30.68
14902;BME280;7542;49.078;9.194;2023-03-15T04:13:11;98554.91;;;26.67;30.85
14902;BME280;7542;49.078;9.194;2023-03-15T04:14:13;98556.00;;;26.66;30.80
14902;BME280;7542;49.078;9.194;2023-03-15T04:15:15;98559.50;;;26.66;30.97
14902;BME280;7542;49.078;9.194;2023-03-15T04:16:17;98564.88;;;26.66;30.75
14902;BME280;7542;49.078;9.194;2023-03-15T04:17:19;98559.75;;;26.65;30.92
14902;BME280;7542;49.078;9.194;2023-03-15T04:18:21;98565.94;;;26.65;31.08
14902;BME280;7542;49.078;9.194;2023-03-15T04:19:24;98564.34;;;26.64;30.78
14902;BME280;7542;49.078;9.194;2023-03-15T04:20:26;98564.34;;;26.64;31.01
14902;BME280;7542;49.078;9.194;2023-03-15T04:21:28;98557.88;;;26.65;31.10
14902;BME280;7542;49.078;9.194;2023-03-15T04:22:32;98565.16;;;26.65;30.82
14902;BME280;7542;49.078;9.194;2023-03-15T04:23:36;98566.75;;;26.66;30.96
14902;BME280;7542;49.078;9.194;2023-03-15T04:24:38;98568.09;;;26.68;30.85
14902;BME280;7542;49.078;9.194;2023-03-15T04:25:43;98558.41;;;26.67;30.95
14902;BME280;7542;49.078;9.194;2023-03-15T04:26:44;98568.09;;;26.68;30.68
14902;BME280;7542;49.078;9.194;2023-03-15T04:27:47;98566.75;;;26.66;30.95
14902;BME280;7542;49.078;9.194;2023-03-15T04:28:59;98565.13;;;26.70;30.64
14902;BME280;7542;49.078;9.194;2023-03-15T04:30:01;98567.28;;;26.68;31.11
14902;BME280;7542;49.078;9.194;2023-03-15T04:31:06;98563.78;;;26.67;30.91
14902;BME280;7542;49.078;9.194;2023-03-15T04:32:11;98572.94;;;26.66;30.77
14902;BME280;7542;49.078;9.194;2023-03-15T04:33:13;98572.94;;;26.66;30.97
14902;BME280;7542;49.078;9.194;2023-03-15T04:34:14;98569.72;;;26.64;30.97
14902;BME280;7542;49.078;9.194;2023-03-15T04:35:16;98571.84;;;26.67;30.80
14902;BME280;7542;49.078;9.194;2023-03-15T04:36:18;98568.91;;;26.64;30.99
14902;BME280;7542;49.078;9.194;2023-03-15T04:37:20;98573.22;;;26.65;30.73
14902;BME280;7542;49.078;9.194;2023-03-15T04:38:22;98566.22;;;26.64;30.77
14902;BME280;7542;49.078;9.194;2023-03-15T04:39:27;98568.91;;;26.64;30.85
14902;BME280;7542;49.078;9.194;2023-03-15T04:40:31;98574.28;;;26.64;30.75
14902;BME280;7542;49.078;9.194;2023-03-15T04:41:35;98577.78;;;26.64;31.02
14902;BME280;7542;49.078;9.194;2023-03-15T04:42:37;98579.41;;;26.65;30.69
14902;BME280;7542;49.078;9.194;2023-03-15T04:43:40;98588.03;;;26.62;30.84
14902;BME280;7542;49.078;9.194;2023-03-15T04:44:42;98588.81;;;26.63;30.48
14902;BME280;7542;49.078;9.194;2023-03-15T04:45:44;98586.41;;;26.61;30.69
14902;BME280;7542;49.078;9.194;2023-03-15T04:46:46;98587.22;;;26.62;30.91
14902;BME280;7542;49.078;9.194;2023-03-15T04:47:52;98589.63;;;26.63;30.92
14902;BME280;7542;49.078;9.194;2023-03-15T04:48:54;98589.09;;;26.61;30.58
14902;BME280;7542;49.078;9.194;2023-03-15T04:49:56;98585.84;;;26.59;30.73
14902;BME280;7542;49.078;9.194;2023-03-15T04:50:57;98582.91;;;26.61;30.92
14902;BME280;7542;49.078;9.194;2023-03-15T04:52:00;98584.00;;;26.60;30.76
14902;BME280;7542;49.078;9.194;2023-03-15T04:53:02;98587.75;;;26.58;30.91
14902;BME280;7542;49.078;9.194;2023-03-15T04:54:03;98593.41;;;26.57;30.84
14902;BME280;7542;49.078;9.194;2023-03-15T04:55:06;98588.03;;;26.57;30.56
14902;BME280;7542;49.078;9.194;2023-03-15T04:56:08;98578.34;;;26.56;30.58
14902;BME280;7542;49.078;9.194;2023-03-15T04:57:10;98582.13;;;26.55;30.90
14902;BME280;7542;49.078;9.194;2023-03-15T04:58:12;98582.91;;;26.55;30.93
14902;BME280;7542;49.078;9.194;2023-03-15T04:59:13;98586.69;;;26.54;30.82
14902;BME280;7542;49.078;9.194;2023-03-15T05:00:15;98585.59;;;26.55;30.75
14902;BME280;7542;49.078;9.194;2023-03-15T05:01:17;98578.91;;;26.53;30.91
14902;BME280;7542;49.078;9.194;2023-03-15T05:02:19;98587.78;;;26.53;30.82
14902;BME280;7542;49.078;9.194;2023-03-15T05:03:21;98588.84;;;26.52;30.74
14902;BME280;7542;49.078;9.194;2023-03-15T05:04:23;98580.25;;;26.50;30.91
14902;BME280;7542;49.078;9.194;2023-03-15T05:05:25;98578.66;;;26.49;30.87
14902;BME280;7542;49.078;9.194;2023-03-15T05:06:27;98578.66;;;26.49;30.80
14902;BME280;7542;49.078;9.194;2023-03-15T05:07:29;98575.97;;;26.49;30.74
14902;BME280;7542;49.078;9.194;2023-03-15T05:08:31;98574.59;;;26.47;30.84
14902;BME280;7542;49.078;9.194;2023-03-15T05:09:33;98578.91;;;26.48;30.77
14902;BME280;7542;49.078;9.194;2023-03-15T05:10:40;98577.84;;;26.49;30.81
14902;BME280;7542;49.078;9.194;2023-03-15T05:11:42;98581.88;;;26.46;30.62
14902;BME280;7542;49.078;9.194;2023-03-15T05:12:44;98579.19;;;26.46;30.67
14902;BME280;7542;49.078;9.194;2023-03-15T05:13:46;98579.19;;;26.46;30.82
14902;BME280;7542;49.078;9.194;2023-03-15T05:14:48;98583.75;;;26.46;30.70
14902;BME280;7542;49.078;9.194;2023-03-15T05:15:50;98574.06;;;26.45;30.63
14902;BME280;7542;49.078;9.194;2023-03-15T05:16:52;98587.25;;;26.46;30.40
14902;BME280;7542;49.078;9.194;2023-03-15T05:17:55;98579.97;;;26.47;30.79
14902;BME280;7542;49.078;9.194;2023-03-15T05:18:57;98581.06;;;26.46;30.88
14902;BME280;7542;49.078;9.194;2023-03-15T05:19:59;98583.75;;;26.46;30.59
14902;BME280;7542;49.078;9.194;2023-03-15T05:21:02;98578.38;;;26.46;31.06
14902;BME280;7542;49.078;9.194;2023-03-15T05:22:07;98576.50;;;26.46;30.45
14902;BME280;7542;49.078;9.194;2023-03-15T05:23:09;98581.06;;;26.46;30.73
14902;BME280;7542;49.078;9.194;2023-03-15T05:24:11;98580.25;;;26.45;30.74
14902;BME280;7542;49.078;9.194;2023-03-15T05:25:13;98588.31;;;26.45;30.91
14902;BME280;7542;49.078;9.194;2023-03-15T05:26:15;98591.81;;;26.46;30.60
14902;BME280;7542;49.078;9.194;2023-03-15T05:27:17;98590.75;;;26.47;30.96
14902;BME280;7542;49.078;9.194;2023-03-15T05:28:24;98584.84;;;26.50;30.71
14902;BME280;7542;49.078;9.194;2023-03-15T05:29:26;98586.97;;;26.48;30.98
14902;BME280;7542;49.078;9.194;2023-03-15T05:30:28;98588.31;;;26.45;30.64
14902;BME280;7542;49.078;9.194;2023-03-15T05:31:30;98588.31;;;26.45;30.64
14902;BME280;7542;49.078;9.194;2023-03-15T05:32:37;98588.06;;;26.47;30.98
14902;BME280;7542;49.078;9.194;2023-03-15T05:33:40;98590.75;;;26.47;30.64
14902;BME280;7542;49.078;9.194;2023-03-15T05:34:47;98588.59;;;26.49;30.38
14902;BME280;7542;49.078;9.194;2023-03-15T05:35:49;98595.59;;;26.50;30.57
14902;BME280;7542;49.078;9.194;2023-03-15T05:36:54;98592.34;;;26.48;30.70
14902;BME280;7542;49.078;9.194;2023-03-15T05:37:56;98593.44;;;26.47;30.61
14902;BME280;7542;49.078;9.194;2023-03-15T05:38:58;98601.50;;;26.47;30.77
14902;BME280;7542;49.078;9.194;2023-03-15T05:40:00;98604.47;;;26.45;30.81
14902;BME280;7542;49.078;9.194;2023-03-15T05:41:02;98602.56;;;26.46;30.51
14902;BME280;7542;49.078;9.194;2023-03-15T05:42:04;98602.28;;;26.47;30.59
14902;BME280;7542;49.078;9.194;2023-03-15T05:43:06;98597.47;;;26.49;30.56
14902;BME280;7542;49.078;9.194;2023-03-15T05:44:09;98603.09;;;26.48;30.49
14902;BME280;7542;49.078;9.194;2023-03-15T05:45:11;98613.06;;;26.47;30.60
14902;BME280;7542;49.078;9.194;2023-03-15T05:46:12;98604.19;;;26.47;30.65
14902;BME280;7542;49.078;9.194;2023-03-15T05:47:14;98607.69;;;26.47;30.79
14902;BME280;7542;49.078;9.194;2023-03-15T05:48:16;98606.88;;;26.47;30.77
14902;BME280;7542;49.078;9.194;2023-03-15T05:49:18;98606.88;;;26.47;30.99
14902;BME280;7542;49.078;9.194;2023-03-15T05:50:20;98600.69;;;26.46;30.38